ROTAER D-AMDT 46/19 Ver Mudanças

Araçatuba ( SBAU ) / ARAÇATUBA, SP 21 08 39S/050 25 35W
AD PUB Azul 7NNE UTC-3 VFR IFR L21 , L26 415 (1362)

05 - L10 , L12 - ( 2120x35 ASPH 26/F/A/X/T L14 , L15 ) - L10 , L12 - 23

(CINDACTA 2)
COM -
RÁDIO [3] 130.600
RDONAV -
NDB ARA [2] 265 2108.36S/05025.60W
CMB- [1] PF TF SER - S3   RFFS - CAT - 5
MET -

[4] CMA 1,2,3,4

AIS - [5] [4]
COMPL -
  • [1] (DLY 0930-2230) - O/R: TEL: (18) 3623-1743, 3624-6157, 9712-1736, 9754-5722
  • [2] (MON,TUE,WED,THU,FRI 2100-2300 Exc. HOL)
  • [3] (MON,TUE,WED,THU,FRI,SAT 0800-0900 Exc. HOL)
  • [4] Autoatendimento
  • [5] Para INFO ADDN consultar o Centro de Informação Aeronáutica Curitiba (CAIS-CW) Tel: (41) 3251-5822, Fax (41) 3251-5821
TEMP (0)

Suplementos AIP (0)

NOTAM (2)

AGA

E2703/19 R E2692/19 29/11/2019 19:09
AD CLSD DEVIDO SER MAINT


CNS

E2721/19 N 03/12/2019 19:10
ARA NDB 265 MHZ U/S


Nascer/Por do Sol

08:33

21:57


METAR

111900Z 07008KT 9999 SCT005 BKN080 23/23 Q1008= 2019121120 - SPECI SBAU 111930Z 09008KT 9999 -RA FEW008 BKN080 23/23 Q1009=

TAF

110300Z 1106/1118 04006KT 9999 SCT030 TN22/1108Z TX27/1117Z TEMPO 1115/1118 TS SCT030 FEW035CB RMK PCX=


Cartas (7)

ADC


IAC


SID



Rotas Preferenciais (0)